sensor_id;sensor_type;location;lat;lon;timestamp;pressure;altitude;pressure_sealevel;temperature;humidity
5455;BME280;2750;49.050;9.250;2022-07-05T00:03:48;99022.88;;;18.41;83.39
5455;BME280;2750;49.050;9.250;2022-07-05T00:08:50;99045.16;;;18.59;83.68
5455;BME280;2750;49.050;9.250;2022-07-05T00:13:52;99046.88;;;18.71;83.95
5455;BME280;2750;49.050;9.250;2022-07-05T00:18:53;99045.94;;;18.72;84.29
5455;BME280;2750;49.050;9.250;2022-07-05T00:23:56;99040.94;;;18.91;84.00
5455;BME280;2750;49.050;9.250;2022-07-05T00:28:58;99044.03;;;18.39;83.73
5455;BME280;2750;49.050;9.250;2022-07-05T00:33:59;99052.66;;;18.29;83.71
5455;BME280;2750;49.050;9.250;2022-07-05T00:39:02;99040.56;;;18.39;83.13
5455;BME280;2750;49.050;9.250;2022-07-05T00:44:06;99035.88;;;18.07;82.90
5455;BME280;2750;49.050;9.250;2022-07-05T00:49:08;99042.16;;;18.29;82.48
5455;BME280;2750;49.050;9.250;2022-07-05T00:54:11;99045.91;;;18.13;83.37
5455;BME280;2750;49.050;9.250;2022-07-05T00:59:12;99054.22;;;18.20;83.38
5455;BME280;2750;49.050;9.250;2022-07-05T01:04:14;99058.31;;;17.88;85.08
5455;BME280;2750;49.050;9.250;2022-07-05T01:09:18;99065.31;;;18.00;84.29
5455;BME280;2750;49.050;9.250;2022-07-05T01:14:22;99054.06;;;17.98;84.07
5455;BME280;2750;49.050;9.250;2022-07-05T01:19:24;99067.59;;;17.81;83.76
5455;BME280;2750;49.050;9.250;2022-07-05T01:24:27;99072.16;;;17.66;85.02
5455;BME280;2750;49.050;9.250;2022-07-05T01:29:28;99063.78;;;17.23;86.13
5455;BME280;2750;49.050;9.250;2022-07-05T01:34:30;99084.03;;;17.59;85.16
5455;BME280;2750;49.050;9.250;2022-07-05T01:39:33;99068.91;;;17.37;85.13
5455;BME280;2750;49.050;9.250;2022-07-05T01:44:34;99075.19;;;17.47;84.93
5455;BME280;2750;49.050;9.250;2022-07-05T01:49:41;99061.25;;;17.34;85.38
5455;BME280;2750;49.050;9.250;2022-07-05T01:54:44;99050.13;;;17.18;86.49
5455;BME280;2750;49.050;9.250;2022-07-05T01:59:45;99058.19;;;17.40;85.87
5455;BME280;2750;49.050;9.250;2022-07-05T02:04:47;99066.50;;;16.96;87.77
5455;BME280;2750;49.050;9.250;2022-07-05T02:09:50;99069.09;;;17.34;86.34
5455;BME280;2750;49.050;9.250;2022-07-05T02:14:51;99070.91;;;17.08;88.14
5455;BME280;2750;49.050;9.250;2022-07-05T02:19:53;99068.09;;;17.24;87.40
5455;BME280;2750;49.050;9.250;2022-07-05T02:24:56;99063.34;;;16.91;88.06
5455;BME280;2750;49.050;9.250;2022-07-05T02:29:57;99061.97;;;16.98;87.03
5455;BME280;2750;49.050;9.250;2022-07-05T02:35:00;99058.94;;;16.66;88.17
5455;BME280;2750;49.050;9.250;2022-07-05T02:40:04;99069.53;;;16.78;88.01
5455;BME280;2750;49.050;9.250;2022-07-05T02:45:06;99068.88;;;16.87;87.15
5455;BME280;2750;49.050;9.250;2022-07-05T02:50:10;99070.19;;;16.94;87.43
5455;BME280;2750;49.050;9.250;2022-07-05T02:55:12;99059.69;;;16.94;87.23
5455;BME280;2750;49.050;9.250;2022-07-05T03:00:14;99067.31;;;16.84;88.17
5455;BME280;2750;49.050;9.250;2022-07-05T03:05:16;99071.34;;;16.90;87.03
5455;BME280;2750;49.050;9.250;2022-07-05T03:10:18;99070.13;;;16.68;88.52
5455;BME280;2750;49.050;9.250;2022-07-05T03:15:20;99085.53;;;16.34;90.08
5455;BME280;2750;49.050;9.250;2022-07-05T03:20:21;99094.38;;;16.18;90.06
5455;BME280;2750;49.050;9.250;2022-07-05T03:25:25;99086.06;;;16.65;87.60
5455;BME280;2750;49.050;9.250;2022-07-05T03:30:27;99087.44;;;16.84;86.08
5455;BME280;2750;49.050;9.250;2022-07-05T03:35:28;99093.63;;;16.83;85.89
5455;BME280;2750;49.050;9.250;2022-07-05T03:40:31;99082.97;;;16.86;87.17
5455;BME280;2750;49.050;9.250;2022-07-05T03:45:33;99096.81;;;17.38;86.42
5455;BME280;2750;49.050;9.250;2022-07-05T03:50:34;99095.63;;;18.17;84.70
5455;BME280;2750;49.050;9.250;2022-07-05T03:55:37;99102.78;;;18.97;81.18
5455;BME280;2750;49.050;9.250;2022-07-05T04:00:38;99117.84;;;20.39;77.10
5455;BME280;2750;49.050;9.250;2022-07-05T04:05:40;99105.94;;;21.60;72.98
5455;BME280;2750;49.050;9.250;2022-07-05T04:10:43;99112.31;;;22.37;70.39
5455;BME280;2750;49.050;9.250;2022-07-05T04:15:44;99129.84;;;23.44;68.44
5455;BME280;2750;49.050;9.250;2022-07-05T04:20:46;99117.03;;;24.31;65.75
5455;BME280;2750;49.050;9.250;2022-07-05T04:25:48;99126.50;;;25.21;63.43
5455;BME280;2750;49.050;9.250;2022-07-05T04:30:50;99119.84;;;26.11;59.90
5455;BME280;2750;49.050;9.250;2022-07-05T04:35:51;99135.88;;;27.09;58.96
5455;BME280;2750;49.050;9.250;2022-07-05T04:40:54;99128.00;;;28.12;57.29
5455;BME280;2750;49.050;9.250;2022-07-05T04:45:56;99129.22;;;29.23;54.37
5455;BME280;2750;49.050;9.250;2022-07-05T04:50:57;99127.00;;;30.08;53.51
5455;BME280;2750;49.050;9.250;2022-07-05T04:56:00;99129.41;;;30.74;52.69
5455;BME280;2750;49.050;9.250;2022-07-05T05:01:02;99135.19;;;30.93;50.99
5455;BME280;2750;49.050;9.250;2022-07-05T05:06:03;99127.81;;;30.59;50.85
5455;BME280;2750;49.050;9.250;2022-07-05T05:11:06;99127.69;;;30.67;52.00
5455;BME280;2750;49.050;9.250;2022-07-05T05:16:08;99127.94;;;29.19;53.79
5455;BME280;2750;49.050;9.250;2022-07-05T05:21:10;99128.03;;;27.95;55.64
5455;BME280;2750;49.050;9.250;2022-07-05T05:26:13;99120.03;;;27.24;56.66
5455;BME280;2750;49.050;9.250;2022-07-05T05:31:15;99114.97;;;28.70;54.83
5455;BME280;2750;49.050;9.250;2022-07-05T05:36:17;99119.44;;;27.77;55.54
5455;BME280;2750;49.050;9.250;2022-07-05T05:41:20;99111.59;;;29.80;52.60
5455;BME280;2750;49.050;9.250;2022-07-05T05:46:21;99129.88;;;31.83;50.18
5455;BME280;2750;49.050;9.250;2022-07-05T05:51:23;99129.91;;;33.24;48.42
5455;BME280;2750;49.050;9.250;2022-07-05T05:56:26;99128.00;;;33.04;48.36
5455;BME280;2750;49.050;9.250;2022-07-05T06:01:28;99130.69;;;33.70;47.19
5455;BME280;2750;49.050;9.250;2022-07-05T06:06:29;99130.06;;;33.75;46.50
5455;BME280;2750;49.050;9.250;2022-07-05T06:11:32;99135.16;;;35.66;44.73
5455;BME280;2750;49.050;9.250;2022-07-05T06:16:33;99143.34;;;36.32;43.84
5455;BME280;2750;49.050;9.250;2022-07-05T06:21:35;99149.16;;;36.65;43.30
5455;BME280;2750;49.050;9.250;2022-07-05T06:26:38;99145.06;;;36.74;42.34
5455;BME280;2750;49.050;9.250;2022-07-05T06:31:39;99145.16;;;36.02;43.35
5455;BME280;2750;49.050;9.250;2022-07-05T06:36:41;99148.22;;;36.60;42.79
5455;BME280;2750;49.050;9.250;2022-07-05T06:41:43;99150.63;;;37.32;42.39
5455;BME280;2750;49.050;9.250;2022-07-05T06:46:45;99153.94;;;36.15;43.89
5455;BME280;2750;49.050;9.250;2022-07-05T06:51:46;99144.50;;;37.95;42.18
5455;BME280;2750;49.050;9.250;2022-07-05T06:56:49;99149.00;;;35.76;44.32
5455;BME280;2750;49.050;9.250;2022-07-05T07:01:51;99146.31;;;35.26;45.61
5455;BME280;2750;49.050;9.250;2022-07-05T07:06:52;99148.22;;;34.56;45.89
5455;BME280;2750;49.050;9.250;2022-07-05T07:11:55;99151.53;;;34.14;46.45
5455;BME280;2750;49.050;9.250;2022-07-05T07:16:57;99158.91;;;34.32;46.55
5455;BME280;2750;49.050;9.250;2022-07-05T07:21:58;99152.28;;;33.31;47.32
5455;BME280;2750;49.050;9.250;2022-07-05T07:27:01;99156.81;;;33.43;47.51
5455;BME280;2750;49.050;9.250;2022-07-05T07:32:07;99156.41;;;33.33;47.17
5455;BME280;2750;49.050;9.250;2022-07-05T07:37:10;99150.28;;;34.17;45.86
5455;BME280;2750;49.050;9.250;2022-07-05T07:42:14;99149.53;;;32.85;47.33
5455;BME280;2750;49.050;9.250;2022-07-05T07:47:16;99148.59;;;34.67;44.01
5455;BME280;2750;49.050;9.250;2022-07-05T07:52:18;99153.47;;;34.45;44.28
5455;BME280;2750;49.050;9.250;2022-07-05T07:57:21;99159.59;;;35.53;43.65
5455;BME280;2750;49.050;9.250;2022-07-05T08:02:22;99169.78;;;32.74;45.39
5455;BME280;2750;49.050;9.250;2022-07-05T08:07:24;99154.59;;;34.24;43.52
5455;BME280;2750;49.050;9.250;2022-07-05T08:12:27;99163.84;;;35.17;42.89
5455;BME280;2750;49.050;9.250;2022-07-05T08:17:28;99161.53;;;35.21;43.07
5455;BME280;2750;49.050;9.250;2022-07-05T08:22:30;99167.50;;;34.02;44.38
5455;BME280;2750;49.050;9.250;2022-07-05T08:27:32;99178.63;;;34.32;43.87
5455;BME280;2750;49.050;9.250;2022-07-05T08:32:34;99164.53;;;34.24;44.71
5455;BME280;2750;49.050;9.250;2022-07-05T08:37:35;99168.22;;;33.45;46.72
5455;BME280;2750;49.050;9.250;2022-07-05T08:42:38;99171.34;;;34.84;44.82
5455;BME280;2750;49.050;9.250;2022-07-05T08:47:40;99166.41;;;34.74;45.24
5455;BME280;2750;49.050;9.250;2022-07-05T08:52:44;99165.94;;;33.36;46.13
5455;BME280;2750;49.050;9.250;2022-07-05T08:57:48;99158.88;;;33.74;46.17
5455;BME280;2750;49.050;9.250;2022-07-05T09:02:50;99166.16;;;30.74;49.84
5455;BME280;2750;49.050;9.250;2022-07-05T09:07:55;99170.50;;;32.48;48.57
5455;BME280;2750;49.050;9.250;2022-07-05T09:13:00;99171.50;;;29.79;50.30
5455;BME280;2750;49.050;9.250;2022-07-05T09:18:01;99158.69;;;30.04;52.07
5455;BME280;2750;49.050;9.250;2022-07-05T09:23:03;99160.78;;;29.79;51.48
5455;BME280;2750;49.050;9.250;2022-07-05T09:28:06;99163.44;;;29.13;52.02
5455;BME280;2750;49.050;9.250;2022-07-05T09:33:09;99165.66;;;29.24;52.34
5455;BME280;2750;49.050;9.250;2022-07-05T09:38:17;99170.97;;;29.09;51.38
5455;BME280;2750;49.050;9.250;2022-07-05T09:43:22;99175.75;;;29.14;52.12
5455;BME280;2750;49.050;9.250;2022-07-05T09:48:24;99169.00;;;29.03;51.72
5455;BME280;2750;49.050;9.250;2022-07-05T09:53:44;99172.34;;;29.05;52.28
5455;BME280;2750;49.050;9.250;2022-07-05T09:58:47;99169.94;;;29.33;51.44
5455;BME280;2750;49.050;9.250;2022-07-05T10:03:52;99174.13;;;29.35;50.04
5455;BME280;2750;49.050;9.250;2022-07-05T10:08:54;99159.22;;;30.14;49.38
5455;BME280;2750;49.050;9.250;2022-07-05T10:13:58;99170.28;;;29.67;48.57
5455;BME280;2750;49.050;9.250;2022-07-05T10:19:00;99165.69;;;29.90;48.24
5455;BME280;2750;49.050;9.250;2022-07-05T10:24:01;99162.69;;;29.19;47.88
5455;BME280;2750;49.050;9.250;2022-07-05T10:29:06;99164.47;;;29.26;48.57
5455;BME280;2750;49.050;9.250;2022-07-05T10:34:08;99182.50;;;28.56;48.12
5455;BME280;2750;49.050;9.250;2022-07-05T10:39:11;99173.78;;;28.70;48.37
5455;BME280;2750;49.050;9.250;2022-07-05T10:44:25;99169.84;;;28.50;48.91
5455;BME280;2750;49.050;9.250;2022-07-05T10:49:27;99170.31;;;29.30;48.03
5455;BME280;2750;49.050;9.250;2022-07-05T10:54:30;99165.06;;;29.14;47.25
5455;BME280;2750;49.050;9.250;2022-07-05T11:00:04;99158.13;;;29.94;46.79
5455;BME280;2750;49.050;9.250;2022-07-05T11:05:06;99168.13;;;30.36;47.62
5455;BME280;2750;49.050;9.250;2022-07-05T11:10:07;99172.19;;;29.21;48.51
5455;BME280;2750;49.050;9.250;2022-07-05T11:15:10;99161.56;;;28.90;49.40
5455;BME280;2750;49.050;9.250;2022-07-05T11:20:17;99160.56;;;29.89;47.64
5455;BME280;2750;49.050;9.250;2022-07-05T11:25:27;99165.00;;;29.44;47.33
5455;BME280;2750;49.050;9.250;2022-07-05T11:30:44;99163.53;;;29.71;46.66
5455;BME280;2750;49.050;9.250;2022-07-05T11:35:46;99158.94;;;30.24;45.43
5455;BME280;2750;49.050;9.250;2022-07-05T11:40:47;99162.44;;;30.39;46.08
5455;BME280;2750;49.050;9.250;2022-07-05T11:45:56;99160.38;;;31.68;45.17
5455;BME280;2750;49.050;9.250;2022-07-05T11:51:11;99159.91;;;31.37;45.45
5455;BME280;2750;49.050;9.250;2022-07-05T11:56:13;99148.13;;;31.32;44.96
5455;BME280;2750;49.050;9.250;2022-07-05T12:01:16;99138.97;;;31.82;46.44
5455;BME280;2750;49.050;9.250;2022-07-05T12:06:17;99135.84;;;30.23;46.42
5455;BME280;2750;49.050;9.250;2022-07-05T12:11:20;99133.94;;;30.53;45.21
5455;BME280;2750;49.050;9.250;2022-07-05T12:16:41;99133.28;;;30.15;47.10
5455;BME280;2750;49.050;9.250;2022-07-05T12:21:52;99126.81;;;29.95;46.05
5455;BME280;2750;49.050;9.250;2022-07-05T12:26:53;99122.06;;;30.83;46.17
5455;BME280;2750;49.050;9.250;2022-07-05T12:32:00;99120.25;;;31.60;45.24
5455;BME280;2750;49.050;9.250;2022-07-05T12:37:03;99126.09;;;30.94;46.01
5455;BME280;2750;49.050;9.250;2022-07-05T12:42:05;99129.97;;;31.34;45.60
5455;BME280;2750;49.050;9.250;2022-07-05T12:47:08;99130.78;;;29.84;46.41
5455;BME280;2750;49.050;9.250;2022-07-05T12:52:09;99117.47;;;30.05;45.31
5455;BME280;2750;49.050;9.250;2022-07-05T12:57:14;99116.41;;;31.42;45.81
5455;BME280;2750;49.050;9.250;2022-07-05T13:02:36;99119.38;;;30.26;44.72
5455;BME280;2750;49.050;9.250;2022-07-05T13:07:41;99119.16;;;30.06;44.42
5455;BME280;2750;49.050;9.250;2022-07-05T13:12:43;99115.25;;;30.59;45.13
5455;BME280;2750;49.050;9.250;2022-07-05T13:17:46;99113.47;;;30.88;45.36
5455;BME280;2750;49.050;9.250;2022-07-05T13:22:48;99119.25;;;30.49;44.29
5455;BME280;2750;49.050;9.250;2022-07-05T13:27:50;99111.25;;;30.34;44.19
5455;BME280;2750;49.050;9.250;2022-07-05T13:32:54;99121.75;;;30.00;44.89
5455;BME280;2750;49.050;9.250;2022-07-05T13:37:56;99106.34;;;31.22;43.50
5455;BME280;2750;49.050;9.250;2022-07-05T13:42:57;99107.59;;;31.20;43.46
5455;BME280;2750;49.050;9.250;2022-07-05T13:48:00;99106.28;;;31.71;42.92
5455;BME280;2750;49.050;9.250;2022-07-05T13:53:01;99104.72;;;32.31;42.30
5455;BME280;2750;49.050;9.250;2022-07-05T13:58:03;99102.63;;;32.33;43.15
5455;BME280;2750;49.050;9.250;2022-07-05T14:03:06;99108.75;;;32.81;42.60
5455;BME280;2750;49.050;9.250;2022-07-05T14:08:07;99098.41;;;32.72;42.85
5455;BME280;2750;49.050;9.250;2022-07-05T14:13:09;99111.66;;;32.93;41.84
5455;BME280;2750;49.050;9.250;2022-07-05T14:18:11;99102.88;;;32.38;42.35
5455;BME280;2750;49.050;9.250;2022-07-05T14:23:14;99101.06;;;33.70;41.79
5455;BME280;2750;49.050;9.250;2022-07-05T14:28:15;99101.94;;;33.44;41.33
5455;BME280;2750;49.050;9.250;2022-07-05T14:33:18;99103.78;;;31.70;42.30
5455;BME280;2750;49.050;9.250;2022-07-05T14:38:21;99081.63;;;32.89;41.64
5455;BME280;2750;49.050;9.250;2022-07-05T14:43:23;99080.88;;;33.92;38.68
5455;BME280;2750;49.050;9.250;2022-07-05T14:48:26;99070.09;;;35.24;39.95
5455;BME280;2750;49.050;9.250;2022-07-05T14:53:27;99069.53;;;34.28;39.89
5455;BME280;2750;49.050;9.250;2022-07-05T14:58:29;99064.59;;;34.88;39.99
5455;BME280;2750;49.050;9.250;2022-07-05T15:03:33;99063.94;;;33.79;40.33
5455;BME280;2750;49.050;9.250;2022-07-05T15:08:35;99051.06;;;33.87;40.41
5455;BME280;2750;49.050;9.250;2022-07-05T15:13:36;99058.91;;;35.21;39.20
5455;BME280;2750;49.050;9.250;2022-07-05T15:18:39;99042.19;;;36.63;37.19
5455;BME280;2750;49.050;9.250;2022-07-05T15:23:40;99064.78;;;36.80;37.99
5455;BME280;2750;49.050;9.250;2022-07-05T15:28:42;99059.44;;;35.29;38.55
5455;BME280;2750;49.050;9.250;2022-07-05T15:33:45;99031.97;;;36.35;37.58
5455;BME280;2750;49.050;9.250;2022-07-05T15:38:46;99026.13;;;35.90;38.65
5455;BME280;2750;49.050;9.250;2022-07-05T15:43:48;99021.19;;;34.65;39.55
5455;BME280;2750;49.050;9.250;2022-07-05T15:48:50;99022.19;;;35.38;37.41
5455;BME280;2750;49.050;9.250;2022-07-05T15:53:55;99022.56;;;34.74;38.38
5455;BME280;2750;49.050;9.250;2022-07-05T15:58:56;99018.75;;;34.25;39.15
5455;BME280;2750;49.050;9.250;2022-07-05T16:03:59;99031.47;;;33.60;40.34
5455;BME280;2750;49.050;9.250;2022-07-05T16:09:01;99016.19;;;33.99;39.29
5455;BME280;2750;49.050;9.250;2022-07-05T16:14:02;99020.72;;;35.17;38.53
5455;BME280;2750;49.050;9.250;2022-07-05T16:19:05;99016.78;;;34.95;38.25
5455;BME280;2750;49.050;9.250;2022-07-05T16:24:07;99013.69;;;34.35;39.31
5455;BME280;2750;49.050;9.250;2022-07-05T16:29:10;99016.00;;;34.32;39.43
5455;BME280;2750;49.050;9.250;2022-07-05T16:34:13;99012.19;;;34.15;40.22
5455;BME280;2750;49.050;9.250;2022-07-05T16:39:14;98997.28;;;33.54;40.06
5455;BME280;2750;49.050;9.250;2022-07-05T16:44:16;99006.72;;;32.93;41.72
5455;BME280;2750;49.050;9.250;2022-07-05T16:49:18;99011.50;;;32.78;42.00
5455;BME280;2750;49.050;9.250;2022-07-05T16:54:20;99004.63;;;33.21;40.69
5455;BME280;2750;49.050;9.250;2022-07-05T16:59:22;99009.38;;;34.34;39.79
5455;BME280;2750;49.050;9.250;2022-07-05T17:04:25;99012.38;;;34.76;39.67
5455;BME280;2750;49.050;9.250;2022-07-05T17:09:26;99010.81;;;33.41;40.07
5455;BME280;2750;49.050;9.250;2022-07-05T17:14:27;99011.00;;;33.40;40.88
5455;BME280;2750;49.050;9.250;2022-07-05T17:19:30;99012.63;;;33.47;40.85
5455;BME280;2750;49.050;9.250;2022-07-05T17:24:34;99012.47;;;33.42;40.07
5455;BME280;2750;49.050;9.250;2022-07-05T17:29:35;99006.75;;;32.80;41.09
5455;BME280;2750;49.050;9.250;2022-07-05T17:34:38;99011.50;;;32.71;41.69
5455;BME280;2750;49.050;9.250;2022-07-05T17:39:40;99011.94;;;34.47;40.53
5455;BME280;2750;49.050;9.250;2022-07-05T17:44:42;99020.19;;;33.19;41.04
5455;BME280;2750;49.050;9.250;2022-07-05T17:49:45;99020.94;;;32.08;41.71
5455;BME280;2750;49.050;9.250;2022-07-05T17:54:46;99029.66;;;32.23;41.59
5455;BME280;2750;49.050;9.250;2022-07-05T17:59:48;99027.63;;;32.58;42.64
5455;BME280;2750;49.050;9.250;2022-07-05T18:04:51;99023.28;;;32.63;43.11
5455;BME280;2750;49.050;9.250;2022-07-05T18:09:53;99028.16;;;32.14;43.22
5455;BME280;2750;49.050;9.250;2022-07-05T18:14:54;99032.94;;;32.32;42.43
5455;BME280;2750;49.050;9.250;2022-07-05T18:19:57;99032.97;;;32.51;42.64
5455;BME280;2750;49.050;9.250;2022-07-05T18:24:59;99040.97;;;31.58;44.19
5455;BME280;2750;49.050;9.250;2022-07-05T18:30:00;99036.56;;;31.50;44.35
5455;BME280;2750;49.050;9.250;2022-07-05T18:35:04;99032.34;;;31.07;45.15
5455;BME280;2750;49.050;9.250;2022-07-05T18:40:07;99036.63;;;31.29;44.81
5455;BME280;2750;49.050;9.250;2022-07-05T18:45:09;99033.16;;;31.01;45.27
5455;BME280;2750;49.050;9.250;2022-07-05T18:50:12;99039.03;;;30.68;45.75
5455;BME280;2750;49.050;9.250;2022-07-05T18:55:13;99046.16;;;30.40;46.34
5455;BME280;2750;49.050;9.250;2022-07-05T19:00:15;99042.75;;;29.45;47.40
5455;BME280;2750;49.050;9.250;2022-07-05T19:05:19;99053.31;;;28.49;48.91
5455;BME280;2750;49.050;9.250;2022-07-05T19:10:20;99042.41;;;28.05;50.33
5455;BME280;2750;49.050;9.250;2022-07-05T19:15:39;99042.13;;;27.61;50.67
5455;BME280;2750;49.050;9.250;2022-07-05T19:20:42;99038.94;;;26.78;53.31
5455;BME280;2750;49.050;9.250;2022-07-05T19:25:43;99048.56;;;26.39;53.78
5455;BME280;2750;49.050;9.250;2022-07-05T19:30:45;99050.22;;;26.24;53.95
5455;BME280;2750;49.050;9.250;2022-07-05T19:35:48;99049.56;;;26.30;53.99
5455;BME280;2750;49.050;9.250;2022-07-05T19:40:49;99052.41;;;25.78;55.14
5455;BME280;2750;49.050;9.250;2022-07-05T19:45:51;99060.19;;;25.46;55.77
5455;BME280;2750;49.050;9.250;2022-07-05T19:50:54;99055.25;;;25.51;56.10
5455;BME280;2750;49.050;9.250;2022-07-05T19:55:55;99068.53;;;25.51;55.91
5455;BME280;2750;49.050;9.250;2022-07-05T20:00:57;99074.91;;;25.58;55.25
5455;BME280;2750;49.050;9.250;2022-07-05T20:06:00;99091.06;;;24.52;60.97
5455;BME280;2750;49.050;9.250;2022-07-05T20:11:01;99085.69;;;25.05;58.42
5455;BME280;2750;49.050;9.250;2022-07-05T20:16:04;99090.34;;;24.50;59.69
5455;BME280;2750;49.050;9.250;2022-07-05T20:21:07;99101.88;;;23.59;60.77
5455;BME280;2750;49.050;9.250;2022-07-05T20:26:10;99096.84;;;24.20;61.23
5455;BME280;2750;49.050;9.250;2022-07-05T20:31:11;99092.34;;;24.03;61.83
5455;BME280;2750;49.050;9.250;2022-07-05T20:36:15;99108.09;;;24.04;62.04
5455;BME280;2750;49.050;9.250;2022-07-05T20:41:17;99115.91;;;23.32;63.97
5455;BME280;2750;49.050;9.250;2022-07-05T20:46:18;99118.84;;;23.19;64.78
5455;BME280;2750;49.050;9.250;2022-07-05T20:51:21;99127.34;;;23.32;64.81
5455;BME280;2750;49.050;9.250;2022-07-05T20:56:22;99130.38;;;23.47;64.64
5455;BME280;2750;49.050;9.250;2022-07-05T21:01:24;99137.25;;;23.11;65.58
5455;BME280;2750;49.050;9.250;2022-07-05T21:06:27;99139.81;;;23.03;66.08
5455;BME280;2750;49.050;9.250;2022-07-05T21:11:28;99152.47;;;22.90;66.30
5455;BME280;2750;49.050;9.250;2022-07-05T21:16:30;99167.50;;;22.61;68.82
5455;BME280;2750;49.050;9.250;2022-07-05T21:21:33;99180.06;;;21.88;70.22
5455;BME280;2750;49.050;9.250;2022-07-05T21:26:34;99198.53;;;22.09;69.52
5455;BME280;2750;49.050;9.250;2022-07-05T21:31:36;99205.50;;;22.10;69.54
5455;BME280;2750;49.050;9.250;2022-07-05T21:36:39;99212.38;;;21.71;71.15
5455;BME280;2750;49.050;9.250;2022-07-05T21:41:41;99211.69;;;21.49;71.60
5455;BME280;2750;49.050;9.250;2022-07-05T21:46:43;99215.28;;;21.48;70.46
5455;BME280;2750;49.050;9.250;2022-07-05T21:51:46;99219.94;;;21.55;69.61
5455;BME280;2750;49.050;9.250;2022-07-05T21:56:48;99226.66;;;21.27;70.25
5455;BME280;2750;49.050;9.250;2022-07-05T22:01:49;99228.56;;;21.57;69.52
5455;BME280;2750;49.050;9.250;2022-07-05T22:07:10;99233.03;;;20.93;71.09
5455;BME280;2750;49.050;9.250;2022-07-05T22:12:11;99235.03;;;21.00;70.79
5455;BME280;2750;49.050;9.250;2022-07-05T22:17:13;99235.41;;;21.07;70.93
5455;BME280;2750;49.050;9.250;2022-07-05T22:22:16;99247.16;;;21.03;70.70
5455;BME280;2750;49.050;9.250;2022-07-05T22:27:18;99241.22;;;21.54;66.96
5455;BME280;2750;49.050;9.250;2022-07-05T22:32:19;99246.69;;;21.62;68.95
5455;BME280;2750;49.050;9.250;2022-07-05T22:37:22;99255.97;;;21.24;69.83
5455;BME280;2750;49.050;9.250;2022-07-05T22:42:23;99247.56;;;21.72;66.74
5455;BME280;2750;49.050;9.250;2022-07-05T22:47:25;99252.59;;;21.75;66.03
5455;BME280;2750;49.050;9.250;2022-07-05T22:52:28;99246.59;;;21.52;66.03
5455;BME280;2750;49.050;9.250;2022-07-05T22:57:29;99259.75;;;21.63;65.32
5455;BME280;2750;49.050;9.250;2022-07-05T23:02:31;99262.28;;;21.65;65.83
5455;BME280;2750;49.050;9.250;2022-07-05T23:07:33;99276.56;;;21.41;66.15
5455;BME280;2750;49.050;9.250;2022-07-05T23:12:35;99271.69;;;20.83;67.31
5455;BME280;2750;49.050;9.250;2022-07-05T23:17:36;99278.47;;;20.42;68.60
5455;BME280;2750;49.050;9.250;2022-07-05T23:22:39;99290.41;;;20.24;69.28
5455;BME280;2750;49.050;9.250;2022-07-05T23:27:41;99295.97;;;20.32;70.12
5455;BME280;2750;49.050;9.250;2022-07-05T23:32:42;99303.88;;;20.32;71.03
5455;BME280;2750;49.050;9.250;2022-07-05T23:37:45;99303.34;;;20.05;72.20
5455;BME280;2750;49.050;9.250;2022-07-05T23:42:47;99297.31;;;19.81;73.13
5455;BME280;2750;49.050;9.250;2022-07-05T23:47:48;99302.69;;;19.79;73.58
5455;BME280;2750;49.050;9.250;2022-07-05T23:52:51;99305.50;;;20.00;73.19
5455;BME280;2750;49.050;9.250;2022-07-05T23:57:52;99309.78;;;19.90;73.64
